Time;durP1;ratioP1;P1;durP2;ratioP2;P2;SDS_P1;SDS_P2;PMS_P1;PMS_P2;Temp;Humidity;BMP_temperature;BMP_pressure;BME280_temperature;BME280_humidity;BME280_pressure;Samples;Min_cycle;Max_cycle;Signal;HPM_P1;HPM_P2
2023/01/20 00:00:30;;;;;;;5.00;3.67;;;;;;;;;;5048473;28;20025;-74
2023/01/20 00:02:56;;;;;;;7.88;4.93;;;;;;;;;;5048709;28;20040;-74
2023/01/20 00:05:22;;;;;;;7.38;4.40;;;;;;;;;;5051297;28;20107;-76
2023/01/20 00:07:48;;;;;;;7.45;5.07;;;;;;;;;;5047389;28;20056;-74
2023/01/20 00:10:15;;;;;;;8.27;5.60;;;;;;;;;;5049074;28;20036;-74
2023/01/20 00:12:41;;;;;;;12.60;6.22;;;;;;;;;;5065782;28;20120;-76
2023/01/20 00:15:09;;;;;;;8.05;5.90;;;;;;;;;;5048697;28;20025;-74
2023/01/20 00:17:35;;;;;;;11.52;7.35;;;;;;;;;;5051675;28;20016;-72
2023/01/20 00:20:01;;;;;;;13.63;7.07;;;;;;;;;;5049705;28;20525;-76
2023/01/20 00:22:27;;;;;;;10.77;7.50;;;;;;;;;;5047118;28;20494;-73
2023/01/20 00:24:53;;;;;;;12.45;7.07;;;;;;;;;;5047549;28;20504;-73
2023/01/20 00:27:19;;;;;;;11.35;7.65;;;;;;;;;;5059605;28;20120;-72
2023/01/20 00:29:45;;;;;;;16.58;8.18;;;;;;;;;;5047326;28;20498;-75
2023/01/20 00:32:11;;;;;;;15.77;8.32;;;;;;;;;;5046002;28;20473;-72
2023/01/20 00:34:39;;;;;;;11.43;8.57;;;;;;;;;;5041140;28;20096;-73
2023/01/20 00:37:05;;;;;;;13.73;8.95;;;;;;;;;;5046695;28;20071;-72
2023/01/20 00:39:31;;;;;;;11.38;8.00;;;;;;;;;;5050478;28;20442;-74
2023/01/20 00:41:57;;;;;;;11.82;8.35;;;;;;;;;;5052220;28;20060;-73
2023/01/20 00:44:23;;;;;;;15.00;8.88;;;;;;;;;;5058622;28;20429;-73
2023/01/20 00:46:49;;;;;;;15.05;8.63;;;;;;;;;;5054263;28;20481;-73
2023/01/20 00:49:15;;;;;;;16.13;9.45;;;;;;;;;;5075567;28;20532;-75
2023/01/20 00:51:41;;;;;;;12.98;9.20;;;;;;;;;;5048328;28;20116;-74
2023/01/20 00:54:07;;;;;;;13.07;8.70;;;;;;;;;;5048380;28;20036;-74
2023/01/20 00:56:33;;;;;;;17.90;9.63;;;;;;;;;;5062286;28;20473;-75
2023/01/20 00:58:59;;;;;;;17.17;10.68;;;;;;;;;;5048956;28;20037;-74
2023/01/20 01:01:25;;;;;;;14.48;10.52;;;;;;;;;;5049915;28;20892;-74
2023/01/20 01:03:55;;;;;;;13.85;9.75;;;;;;;;;;5039743;28;20038;-73
2023/01/20 01:06:22;;;;;;;18.08;10.63;;;;;;;;;;5036016;28;20034;-76
2023/01/20 01:08:48;;;;;;;16.80;10.45;;;;;;;;;;5041320;28;20029;-73
2023/01/20 01:11:14;;;;;;;16.05;10.43;;;;;;;;;;5040723;28;20037;-73
2023/01/20 01:13:41;;;;;;;17.70;9.88;;;;;;;;;;5043778;28;20072;-73
2023/01/20 01:16:14;;;;;;;13.60;9.70;;;;;;;;;;5039945;28;20491;-76
2023/01/20 01:18:40;;;;;;;18.65;11.27;;;;;;;;;;5041407;28;20502;-72
2023/01/20 01:21:11;;;;;;;19.83;11.00;;;;;;;;;;5045386;28;20028;-76
2023/01/20 01:23:37;;;;;;;19.85;10.18;;;;;;;;;;5043988;28;20033;-74
2023/01/20 01:26:03;;;;;;;14.45;9.80;;;;;;;;;;5049486;28;20044;-75
2023/01/20 01:28:30;;;;;;;14.27;9.15;;;;;;;;;;5056135;28;20025;-74
2023/01/20 01:30:59;;;;;;;14.60;8.93;;;;;;;;;;5047484;28;20022;-75
2023/01/20 01:33:25;;;;;;;19.23;10.23;;;;;;;;;;5055018;28;20024;-75
2023/01/20 01:36:13;;;;;;;14.73;10.13;;;;;;;;;;5051241;28;20056;-75
2023/01/20 01:38:39;;;;;;;15.85;10.85;;;;;;;;;;5049380;28;20025;-75
2023/01/20 01:41:05;;;;;;;14.40;9.45;;;;;;;;;;5053431;28;20056;-75
2023/01/20 01:43:32;;;;;;;13.70;9.57;;;;;;;;;;5052500;28;20036;-75
2023/01/20 01:45:58;;;;;;;15.25;9.65;;;;;;;;;;5048292;28;20033;-75
2023/01/20 01:48:51;;;;;;;14.63;9.13;;;;;;;;;;5050876;28;20466;-75
2023/01/20 01:51:19;;;;;;;14.50;9.50;;;;;;;;;;5048108;28;20049;-72
2023/01/20 01:53:47;;;;;;;12.80;9.27;;;;;;;;;;5050914;28;20069;-77
2023/01/20 01:56:14;;;;;;;13.15;8.73;;;;;;;;;;5045324;28;20068;-73
2023/01/20 01:58:42;;;;;;;18.67;11.27;;;;;;;;;;5061044;28;20029;-73
2023/01/20 02:01:09;;;;;;;16.30;9.70;;;;;;;;;;5042116;28;20025;-73
2023/01/20 02:03:39;;;;;;;15.27;9.63;;;;;;;;;;5055985;28;20032;-73
2023/01/20 02:06:06;;;;;;;17.15;9.88;;;;;;;;;;5042500;28;20036;-72
2023/01/20 02:08:33;;;;;;;14.25;9.35;;;;;;;;;;5057805;28;20021;-73
2023/01/20 02:10:59;;;;;;;16.33;10.07;;;;;;;;;;5042965;28;20483;-73
2023/01/20 02:13:25;;;;;;;17.90;10.50;;;;;;;;;;5051994;28;20040;-71
2023/01/20 02:15:57;;;;;;;15.05;9.85;;;;;;;;;;5043219;28;21524;-72
2023/01/20 02:18:44;;;;;;;16.85;11.20;;;;;;;;;;5049418;28;20029;-72
2023/01/20 02:21:22;;;;;;;16.52;10.93;;;;;;;;;;5035530;28;20045;-71
2023/01/20 02:23:48;;;;;;;17.23;11.38;;;;;;;;;;5042208;28;20032;-71
2023/01/20 02:26:33;;;;;;;15.68;11.10;;;;;;;;;;5043519;28;20025;-72
2023/01/20 02:29:02;;;;;;;18.30;12.25;;;;;;;;;;5047967;28;20409;-72
2023/01/20 02:31:46;;;;;;;15.32;11.43;;;;;;;;;;5045591;28;20112;-72
2023/01/20 02:34:16;;;;;;;17.77;11.40;;;;;;;;;;5045333;28;20044;-73
2023/01/20 02:36:48;;;;;;;20.17;12.25;;;;;;;;;;5045338;28;20473;-72
2023/01/20 02:39:23;;;;;;;19.92;12.45;;;;;;;;;;5046067;28;20037;-72
2023/01/20 02:42:10;;;;;;;19.92;12.65;;;;;;;;;;5046414;28;20032;-75
2023/01/20 02:44:56;;;;;;;18.10;12.10;;;;;;;;;;5045950;28;20061;-73
2023/01/20 02:47:31;;;;;;;20.10;13.65;;;;;;;;;;5040992;28;20044;-71
2023/01/20 02:50:03;;;;;;;21.70;12.45;;;;;;;;;;5043786;28;20037;-72
2023/01/20 02:52:35;;;;;;;23.50;13.48;;;;;;;;;;5044945;28;20033;-72
2023/01/20 02:55:04;;;;;;;20.77;13.13;;;;;;;;;;5048221;28;20051;-73
2023/01/20 02:57:32;;;;;;;19.73;12.75;;;;;;;;;;5045664;28;20385;-73
2023/01/20 03:00:02;;;;;;;21.27;13.73;;;;;;;;;;5064223;28;20358;-72
2023/01/20 03:02:29;;;;;;;20.83;12.90;;;;;;;;;;5050966;28;20033;-72
2023/01/20 03:04:58;;;;;;;23.80;14.15;;;;;;;;;;5055763;28;20045;-72
2023/01/20 03:07:27;;;;;;;20.02;14.05;;;;;;;;;;5053365;28;20051;-73
2023/01/20 03:09:55;;;;;;;21.13;14.60;;;;;;;;;;5063139;28;20025;-74
2023/01/20 03:12:24;;;;;;;22.27;15.13;;;;;;;;;;5049015;28;20466;-72
2023/01/20 03:14:50;;;;;;;27.55;17.27;;;;;;;;;;5035438;28;20095;-76
2023/01/20 03:17:17;;;;;;;23.80;16.23;;;;;;;;;;5040823;28;20131;-73
2023/01/20 03:19:43;;;;;;;24.55;15.57;;;;;;;;;;5041749;28;20060;-72
2023/01/20 03:22:09;;;;;;;29.10;16.83;;;;;;;;;;5040350;28;20025;-72
2023/01/20 03:24:37;;;;;;;27.92;16.80;;;;;;;;;;5038196;28;20018;-72
2023/01/20 03:27:03;;;;;;;24.55;16.63;;;;;;;;;;5043144;28;20087;-71
2023/01/20 03:29:29;;;;;;;26.27;16.63;;;;;;;;;;5048882;28;20044;-71
2023/01/20 03:31:59;;;;;;;28.90;16.95;;;;;;;;;;5053343;28;20090;-72
2023/01/20 03:34:26;;;;;;;27.08;17.15;;;;;;;;;;5046057;28;20028;-71
2023/01/20 03:36:53;;;;;;;28.45;17.30;;;;;;;;;;5049433;28;20032;-72
2023/01/20 03:39:19;;;;;;;27.60;17.25;;;;;;;;;;5050411;28;20032;-72
2023/01/20 03:41:58;;;;;;;28.67;17.50;;;;;;;;;;5050293;28;20032;-72
2023/01/20 03:44:24;;;;;;;28.38;17.13;;;;;;;;;;5058868;28;20040;-72
2023/01/20 03:46:57;;;;;;;32.75;19.98;;;;;;;;;;5042276;28;20280;-72
2023/01/20 03:49:29;;;;;;;30.35;17.95;;;;;;;;;;5042088;28;20044;-72
2023/01/20 03:51:55;;;;;;;28.85;17.55;;;;;;;;;;5045035;28;20052;-74
2023/01/20 03:54:27;;;;;;;30.10;16.88;;;;;;;;;;5046859;28;20055;-73
2023/01/20 03:57:02;;;;;;;30.98;18.17;;;;;;;;;;5043374;28;20492;-73
2023/01/20 03:59:30;;;;;;;32.38;18.92;;;;;;;;;;5046497;28;20063;-72
2023/01/20 04:01:56;;;;;;;30.83;17.92;;;;;;;;;;5043952;28;20557;-73
2023/01/20 04:04:22;;;;;;;30.55;17.98;;;;;;;;;;5039267;28;20029;-73
2023/01/20 04:06:49;;;;;;;31.15;17.92;;;;;;;;;;5045538;28;20078;-73
2023/01/20 04:09:36;;;;;;;31.98;18.70;;;;;;;;;;5042016;28;20025;-73
2023/01/20 04:12:02;;;;;;;37.30;19.25;;;;;;;;;;5036415;28;20024;-73
2023/01/20 04:14:28;;;;;;;38.08;20.27;;;;;;;;;;5040971;28;20037;-74
2023/01/20 04:16:58;;;;;;;37.95;19.08;;;;;;;;;;5042477;28;20540;-72
2023/01/20 04:19:24;;;;;;;51.25;21.63;;;;;;;;;;5035176;28;20063;-73
2023/01/20 04:22:09;;;;;;;48.67;22.33;;;;;;;;;;5039150;28;20381;-76
2023/01/20 04:24:49;;;;;;;39.83;20.45;;;;;;;;;;5035478;28;20087;-72
2023/01/20 04:27:15;;;;;;;44.85;22.45;;;;;;;;;;5043020;28;20116;-72
2023/01/20 04:29:41;;;;;;;47.95;20.85;;;;;;;;;;5040473;28;20029;-72
2023/01/20 04:32:09;;;;;;;43.35;22.30;;;;;;;;;;5044863;28;20043;-73
2023/01/20 04:34:35;;;;;;;42.17;20.98;;;;;;;;;;5050120;28;20033;-72
2023/01/20 04:37:01;;;;;;;46.53;20.05;;;;;;;;;;5051521;28;20482;-73
2023/01/20 04:39:27;;;;;;;43.13;20.90;;;;;;;;;;5049474;28;20377;-72
2023/01/20 04:41:53;;;;;;;50.38;19.38;;;;;;;;;;5048151;28;20086;-72
2023/01/20 04:44:19;;;;;;;50.75;20.45;;;;;;;;;;5050071;28;20108;-72
2023/01/20 04:46:46;;;;;;;50.97;21.70;;;;;;;;;;5056896;28;20059;-72
2023/01/20 04:49:12;;;;;;;82.65;23.58;;;;;;;;;;5049378;28;20394;-72
2023/01/20 04:51:38;;;;;;;51.78;21.38;;;;;;;;;;5054822;28;20032;-72
2023/01/20 04:54:05;;;;;;;73.30;20.05;;;;;;;;;;5049472;28;20040;-74
2023/01/20 04:56:31;;;;;;;78.10;22.15;;;;;;;;;;5051072;28;20041;-73
2023/01/20 04:58:57;;;;;;;77.70;20.58;;;;;;;;;;5053570;28;20486;-74
2023/01/20 05:01:23;;;;;;;68.55;21.75;;;;;;;;;;5051972;28;20445;-73
2023/01/20 05:03:49;;;;;;;64.82;21.33;;;;;;;;;;5070475;28;20031;-74
2023/01/20 05:06:17;;;;;;;68.25;21.60;;;;;;;;;;5056737;28;20036;-73
2023/01/20 05:08:43;;;;;;;69.00;21.20;;;;;;;;;;5050998;28;20037;-73
2023/01/20 05:11:09;;;;;;;104.70;22.75;;;;;;;;;;5052562;28;20044;-73
2023/01/20 05:13:38;;;;;;;79.95;22.67;;;;;;;;;;5058784;28;20025;-72
2023/01/20 05:16:05;;;;;;;64.35;23.02;;;;;;;;;;5054958;28;20510;-73
2023/01/20 05:18:32;;;;;;;51.33;22.38;;;;;;;;;;5042729;28;20033;-74
2023/01/20 05:20:58;;;;;;;63.15;23.13;;;;;;;;;;5047825;28;20036;-73
2023/01/20 05:23:25;;;;;;;65.28;20.73;;;;;;;;;;5041818;28;20111;-74
2023/01/20 05:25:51;;;;;;;80.60;21.73;;;;;;;;;;5053210;28;20045;-73
2023/01/20 05:28:18;;;;;;;96.78;24.42;;;;;;;;;;5050009;28;20036;-72
2023/01/20 05:30:44;;;;;;;72.00;23.33;;;;;;;;;;5049876;28;20036;-73
2023/01/20 05:33:10;;;;;;;85.57;24.50;;;;;;;;;;5050237;28;20074;-71
2023/01/20 05:35:39;;;;;;;83.82;24.30;;;;;;;;;;5053157;28;20044;-74
2023/01/20 05:38:05;;;;;;;60.15;21.63;;;;;;;;;;5048032;28;20037;-72
2023/01/20 05:40:31;;;;;;;43.40;21.90;;;;;;;;;;5040683;28;20036;-72
2023/01/20 05:43:01;;;;;;;50.70;22.08;;;;;;;;;;5043882;28;20029;-74
2023/01/20 05:45:27;;;;;;;60.47;21.95;;;;;;;;;;5052386;28;20554;-72
2023/01/20 05:47:54;;;;;;;86.93;24.88;;;;;;;;;;5060816;28;20029;-73
2023/01/20 05:50:20;;;;;;;58.75;23.52;;;;;;;;;;5053595;28;20035;-72
2023/01/20 05:52:46;;;;;;;94.35;23.73;;;;;;;;;;5051412;28;20021;-73
2023/01/20 05:55:12;;;;;;;53.83;22.42;;;;;;;;;;5052231;28;20067;-72
2023/01/20 05:57:38;;;;;;;45.13;22.13;;;;;;;;;;5051806;28;20530;-72
2023/01/20 06:00:05;;;;;;;47.20;21.35;;;;;;;;;;5052166;28;20052;-72
2023/01/20 06:02:31;;;;;;;46.42;21.92;;;;;;;;;;5049919;28;20136;-72
2023/01/20 06:05:00;;;;;;;49.38;22.48;;;;;;;;;;5049387;28;20036;-72
2023/01/20 06:07:27;;;;;;;53.65;21.70;;;;;;;;;;5055701;28;20056;-72
2023/01/20 06:09:53;;;;;;;87.97;26.58;;;;;;;;;;5050591;28;20106;-73
2023/01/20 06:12:19;;;;;;;50.67;23.55;;;;;;;;;;5051219;28;20174;-73
2023/01/20 06:14:45;;;;;;;74.07;25.33;;;;;;;;;;5055695;28;20512;-72
2023/01/20 06:17:11;;;;;;;53.05;24.13;;;;;;;;;;5049900;28;20363;-72
2023/01/20 06:19:37;;;;;;;55.25;24.52;;;;;;;;;;5050153;28;20017;-72
2023/01/20 06:22:04;;;;;;;64.18;24.48;;;;;;;;;;5035275;28;20037;-73
2023/01/20 06:24:30;;;;;;;60.10;24.88;;;;;;;;;;5049026;28;20040;-73
2023/01/20 06:26:56;;;;;;;61.63;25.70;;;;;;;;;;5051719;28;20085;-72
2023/01/20 06:29:22;;;;;;;55.88;26.92;;;;;;;;;;5042866;28;20028;-72
2023/01/20 06:31:48;;;;;;;71.35;26.65;;;;;;;;;;5034576;28;20037;-73
2023/01/20 06:34:14;;;;;;;56.97;26.13;;;;;;;;;;5041885;28;20037;-72
2023/01/20 06:36:40;;;;;;;53.45;23.55;;;;;;;;;;5037690;28;21213;-74
2023/01/20 06:39:06;;;;;;;54.80;27.20;;;;;;;;;;5054539;28;20401;-72
2023/01/20 06:41:32;;;;;;;68.70;26.95;;;;;;;;;;5041017;28;20112;-73
2023/01/20 06:43:58;;;;;;;66.88;30.33;;;;;;;;;;5054987;28;20389;-72
2023/01/20 06:46:24;;;;;;;63.80;26.60;;;;;;;;;;5050308;28;20095;-71
2023/01/20 06:48:51;;;;;;;76.72;33.05;;;;;;;;;;5048978;28;20040;-72
2023/01/20 06:51:19;;;;;;;61.72;28.30;;;;;;;;;;5049486;28;20029;-71
2023/01/20 06:53:46;;;;;;;68.80;28.85;;;;;;;;;;5048608;28;20428;-72
2023/01/20 06:56:13;;;;;;;66.60;28.83;;;;;;;;;;5045200;28;20404;-73
2023/01/20 06:58:39;;;;;;;69.72;28.95;;;;;;;;;;5049217;28;20029;-74
2023/01/20 07:01:10;;;;;;;68.43;28.23;;;;;;;;;;5051959;28;20025;-75
2023/01/20 07:03:36;;;;;;;64.10;29.10;;;;;;;;;;5047823;28;20082;-74
2023/01/20 07:06:04;;;;;;;67.78;30.20;;;;;;;;;;5050009;28;20025;-73
2023/01/20 07:08:31;;;;;;;74.30;30.17;;;;;;;;;;5049851;28;20029;-74
2023/01/20 07:10:57;;;;;;;76.65;30.55;;;;;;;;;;5050581;28;20055;-73
2023/01/20 07:13:23;;;;;;;66.22;29.10;;;;;;;;;;5047944;28;20043;-72
2023/01/20 07:15:49;;;;;;;65.88;30.15;;;;;;;;;;5040761;28;20037;-72
2023/01/20 07:18:15;;;;;;;71.88;29.40;;;;;;;;;;5039493;28;20034;-74
2023/01/20 07:20:42;;;;;;;69.85;33.67;;;;;;;;;;5054266;28;20051;-74
2023/01/20 07:23:09;;;;;;;72.57;32.13;;;;;;;;;;5042259;28;20029;-73
2023/01/20 07:25:36;;;;;;;64.55;29.75;;;;;;;;;;5047503;28;20047;-72
2023/01/20 07:28:03;;;;;;;66.55;33.58;;;;;;;;;;5041975;28;20021;-73
2023/01/20 07:30:29;;;;;;;67.80;31.30;;;;;;;;;;5056103;28;20102;-72
2023/01/20 07:32:55;;;;;;;69.32;31.08;;;;;;;;;;5048802;28;20032;-73
2023/01/20 07:35:21;;;;;;;69.75;32.92;;;;;;;;;;5047601;28;20359;-72
2023/01/20 07:37:47;;;;;;;69.40;32.90;;;;;;;;;;5045167;28;20470;-73
2023/01/20 07:40:13;;;;;;;76.55;33.60;;;;;;;;;;5039723;28;20033;-73
2023/01/20 07:42:40;;;;;;;61.03;31.10;;;;;;;;;;5043005;28;20052;-72
2023/01/20 07:45:06;;;;;;;70.75;31.20;;;;;;;;;;5063465;28;20057;-73
2023/01/20 07:47:32;;;;;;;72.97;32.67;;;;;;;;;;5053769;28;20039;-73
2023/01/20 07:49:58;;;;;;;68.40;30.17;;;;;;;;;;5051162;28;20032;-74
2023/01/20 07:52:24;;;;;;;69.03;31.92;;;;;;;;;;5048249;28;20424;-75
2023/01/20 07:54:50;;;;;;;66.45;29.58;;;;;;;;;;5049718;28;20497;-75
2023/01/20 07:57:16;;;;;;;66.00;30.33;;;;;;;;;;5056588;28;20076;-73
2023/01/20 07:59:42;;;;;;;68.68;29.27;;;;;;;;;;5046524;28;20030;-74
2023/01/20 08:02:09;;;;;;;64.10;30.50;;;;;;;;;;5036712;28;20083;-73
2023/01/20 08:04:35;;;;;;;67.72;31.00;;;;;;;;;;5044775;28;20036;-76
2023/01/20 08:07:02;;;;;;;61.47;29.17;;;;;;;;;;5044938;28;20355;-76
2023/01/20 08:09:28;;;;;;;63.38;28.98;;;;;;;;;;5055497;28;20044;-74
2023/01/20 08:11:54;;;;;;;63.70;30.35;;;;;;;;;;5038498;28;20040;-73
2023/01/20 08:14:20;;;;;;;62.10;29.10;;;;;;;;;;5040355;28;20124;-73
2023/01/20 08:16:47;;;;;;;68.38;31.58;;;;;;;;;;5038409;28;20120;-76
2023/01/20 08:19:13;;;;;;;64.97;31.45;;;;;;;;;;5044466;28;20045;-78
2023/01/20 08:21:39;;;;;;;69.22;30.30;;;;;;;;;;5046462;28;20036;-74
2023/01/20 08:24:05;;;;;;;66.05;30.27;;;;;;;;;;5048533;28;20033;-74
2023/01/20 08:26:31;;;;;;;66.50;29.73;;;;;;;;;;5047162;28;20035;-72
2023/01/20 08:29:02;;;;;;;67.50;29.58;;;;;;;;;;5051760;28;20082;-76
2023/01/20 08:31:28;;;;;;;51.30;25.38;;;;;;;;;;5047895;28;20020;-71
2023/01/20 08:33:55;;;;;;;64.00;28.23;;;;;;;;;;5052743;28;20033;-74
2023/01/20 08:36:23;;;;;;;67.80;28.92;;;;;;;;;;5053714;28;20056;-71
2023/01/20 08:38:49;;;;;;;82.03;36.70;;;;;;;;;;5049587;28;20032;-74
2023/01/20 08:41:16;;;;;;;68.20;31.10;;;;;;;;;;5046018;28;20028;-75
2023/01/20 08:43:42;;;;;;;68.15;31.52;;;;;;;;;;5037977;28;20029;-73
2023/01/20 08:46:10;;;;;;;59.10;29.15;;;;;;;;;;5049795;28;20025;-71
2023/01/20 08:48:37;;;;;;;62.40;28.50;;;;;;;;;;5054389;28;20415;-71
2023/01/20 08:51:04;;;;;;;65.72;28.85;;;;;;;;;;5051983;28;20071;-72
2023/01/20 08:53:30;;;;;;;59.75;27.55;;;;;;;;;;5045809;28;20072;-72
2023/01/20 08:55:57;;;;;;;60.50;28.88;;;;;;;;;;5053289;28;20040;-72
2023/01/20 08:58:24;;;;;;;63.30;28.85;;;;;;;;;;5055957;28;20033;-72
2023/01/20 09:00:50;;;;;;;63.60;28.27;;;;;;;;;;5052697;28;20370;-72
2023/01/20 09:03:16;;;;;;;64.05;29.52;;;;;;;;;;5054001;28;20037;-72
2023/01/20 09:05:42;;;;;;;64.43;28.92;;;;;;;;;;5051392;28;20028;-73
2023/01/20 09:08:08;;;;;;;54.35;27.45;;;;;;;;;;5048749;28;20025;-74
2023/01/20 09:10:34;;;;;;;59.55;27.80;;;;;;;;;;5051536;28;20435;-74
2023/01/20 09:13:01;;;;;;;74.95;32.95;;;;;;;;;;5050770;28;20498;-74
2023/01/20 09:15:27;;;;;;;82.18;34.67;;;;;;;;;;5049347;28;20072;-74
2023/01/20 09:17:53;;;;;;;59.92;26.27;;;;;;;;;;5057962;28;20083;-72
2023/01/20 09:20:19;;;;;;;71.90;31.73;;;;;;;;;;5045828;28;20032;-72
2023/01/20 09:22:45;;;;;;;65.03;28.13;;;;;;;;;;5046733;28;20041;-72
2023/01/20 09:25:11;;;;;;;64.50;29.55;;;;;;;;;;5050852;28;20131;-72
2023/01/20 09:27:37;;;;;;;63.25;28.27;;;;;;;;;;5052068;28;20029;-73
2023/01/20 09:30:03;;;;;;;57.67;27.33;;;;;;;;;;5067426;28;20044;-74
2023/01/20 09:32:31;;;;;;;64.55;30.40;;;;;;;;;;5042292;28;20078;-73
2023/01/20 09:34:57;;;;;;;57.15;28.25;;;;;;;;;;5048258;28;20082;-74
2023/01/20 09:46:03;;;;;;;67.88;30.33;;;;;;;;;;5042192;28;20056;-74
2023/01/20 09:54:26;;;;;;;60.60;26.92;;;;;;;;;;5044351;28;20090;-73
2023/01/20 09:56:54;;;;;;;72.75;30.25;;;;;;;;;;5038714;28;20274;-73
2023/01/20 09:59:26;;;;;;;67.68;27.23;;;;;;;;;;5044668;28;20199;-72
2023/01/20 10:01:55;;;;;;;60.15;27.27;;;;;;;;;;5045065;28;20029;-73
2023/01/20 10:04:47;;;;;;;59.60;27.27;;;;;;;;;;5042903;28;20025;-73
2023/01/20 10:07:16;;;;;;;60.80;27.43;;;;;;;;;;5041049;28;20124;-73
2023/01/20 10:09:52;;;;;;;70.50;27.63;;;;;;;;;;5044038;28;20643;-73
2023/01/20 10:12:21;;;;;;;60.72;28.30;;;;;;;;;;5034776;28;20429;-73
2023/01/20 10:15:08;;;;;;;62.95;28.02;;;;;;;;;;5042639;28;20481;-74
2023/01/20 10:17:38;;;;;;;59.88;26.60;;;;;;;;;;5042871;28;20381;-74
2023/01/20 10:20:13;;;;;;;56.05;25.95;;;;;;;;;;5040010;28;20558;-74
2023/01/20 10:22:53;;;;;;;52.63;25.70;;;;;;;;;;5037745;28;20402;-72
2023/01/20 10:25:32;;;;;;;53.47;25.58;;;;;;;;;;5043201;28;20124;-74
2023/01/20 10:28:05;;;;;;;56.50;25.35;;;;;;;;;;5055753;28;20461;-74
2023/01/20 10:30:34;;;;;;;55.67;24.30;;;;;;;;;;5043305;28;20036;-73
2023/01/20 10:33:00;;;;;;;55.90;26.58;;;;;;;;;;5052255;28;20092;-74
2023/01/20 10:35:27;;;;;;;51.42;25.60;;;;;;;;;;5042898;28;20045;-74
2023/01/20 10:37:54;;;;;;;52.75;25.65;;;;;;;;;;5038030;28;20029;-74
2023/01/20 10:40:23;;;;;;;55.03;23.83;;;;;;;;;;5045562;28;20143;-72
2023/01/20 10:42:53;;;;;;;49.70;23.70;;;;;;;;;;5064659;28;20036;-73
2023/01/20 10:45:42;;;;;;;55.53;27.13;;;;;;;;;;5047614;28;20044;-72
2023/01/20 10:48:35;;;;;;;55.20;26.92;;;;;;;;;;5041068;28;20043;-73
2023/01/20 10:51:09;;;;;;;50.30;24.65;;;;;;;;;;5053030;28;20469;-73
2023/01/20 10:53:42;;;;;;;53.45;24.55;;;;;;;;;;5054339;28;20025;-73
2023/01/20 10:56:34;;;;;;;54.08;23.90;;;;;;;;;;5053136;28;20066;-73
2023/01/20 10:59:07;;;;;;;50.30;24.08;;;;;;;;;;5050618;28;20029;-78
2023/01/20 11:01:34;;;;;;;54.58;25.55;;;;;;;;;;5047764;28;20041;-73
2023/01/20 11:04:00;;;;;;;51.15;23.73;;;;;;;;;;5046756;28;20032;-75
2023/01/20 11:06:27;;;;;;;52.05;25.58;;;;;;;;;;5051469;28;20045;-74
2023/01/20 11:08:54;;;;;;;50.38;24.85;;;;;;;;;;5050908;28;21745;-74
2023/01/20 11:11:21;;;;;;;51.85;24.73;;;;;;;;;;5041206;28;20112;-75
2023/01/20 11:13:50;;;;;;;53.40;25.70;;;;;;;;;;5045571;28;20119;-74
2023/01/20 11:16:27;;;;;;;60.13;32.22;;;;;;;;;;5050741;28;20478;-78
2023/01/20 11:19:04;;;;;;;48.65;24.63;;;;;;;;;;5050601;28;20159;-75
2023/01/20 11:21:34;;;;;;;49.70;24.08;;;;;;;;;;5032880;28;20066;-74
2023/01/20 11:24:01;;;;;;;46.90;23.05;;;;;;;;;;5051868;28;20170;-74
2023/01/20 11:26:34;;;;;;;43.08;22.25;;;;;;;;;;5042116;28;20096;-74
2023/01/20 11:29:02;;;;;;;45.33;23.15;;;;;;;;;;5043300;28;20438;-75
2023/01/20 11:31:42;;;;;;;49.13;22.98;;;;;;;;;;5045590;28;20055;-74
2023/01/20 11:34:21;;;;;;;44.75;20.98;;;;;;;;;;5041925;28;20025;-74
2023/01/20 11:36:47;;;;;;;44.38;21.88;;;;;;;;;;5034274;28;20041;-75
2023/01/20 11:39:33;;;;;;;38.97;19.95;;;;;;;;;;5045457;28;20025;-74
2023/01/20 11:42:19;;;;;;;43.63;21.05;;;;;;;;;;5036254;28;20025;-79
2023/01/20 11:44:45;;;;;;;46.47;19.83;;;;;;;;;;5042730;28;20556;-73
2023/01/20 11:47:21;;;;;;;37.33;20.23;;;;;;;;;;5038719;28;20045;-73
2023/01/20 11:50:05;;;;;;;41.47;19.70;;;;;;;;;;5038769;28;20515;-74
2023/01/20 11:52:31;;;;;;;45.60;21.65;;;;;;;;;;5035024;28;20521;-73
2023/01/20 11:55:08;;;;;;;37.95;18.88;;;;;;;;;;5040350;28;20049;-75
2023/01/20 11:57:35;;;;;;;44.05;19.30;;;;;;;;;;5040744;28;20033;-73
2023/01/20 12:00:01;;;;;;;40.50;19.70;;;;;;;;;;5040834;28;20064;-74
2023/01/20 12:02:27;;;;;;;40.35;19.45;;;;;;;;;;5038829;28;20034;-77
2023/01/20 12:05:14;;;;;;;40.13;20.88;;;;;;;;;;5042207;28;20390;-76
2023/01/20 12:07:48;;;;;;;38.75;19.52;;;;;;;;;;5036649;28;20036;-74
2023/01/20 12:10:17;;;;;;;39.97;18.33;;;;;;;;;;5050792;28;20032;-73
2023/01/20 12:12:46;;;;;;;36.05;18.25;;;;;;;;;;5041297;28;20025;-75
2023/01/20 12:15:18;;;;;;;41.45;18.65;;;;;;;;;;5047080;28;20024;-77
2023/01/20 12:17:44;;;;;;;;;;;;;;;;;;5034729;28;20036;-74
2023/01/20 12:20:29;;;;;;;37.00;18.85;;;;;;;;;;5045351;28;19952;-75
2023/01/20 12:23:20;;;;;;;38.70;18.23;;;;;;;;;;5044572;28;20025;-75
2023/01/20 12:25:56;;;;;;;37.78;17.27;;;;;;;;;;5050722;28;20025;-75
2023/01/20 12:28:26;;;;;;;33.92;16.25;;;;;;;;;;5049094;28;20082;-75
2023/01/20 12:30:52;;;;;;;31.90;16.27;;;;;;;;;;5046829;28;20389;-74
2023/01/20 12:33:21;;;;;;;31.23;16.58;;;;;;;;;;5049036;28;20033;-75
2023/01/20 12:36:00;;;;;;;37.97;18.58;;;;;;;;;;5048625;28;20355;-79
2023/01/20 12:38:28;;;;;;;37.55;18.60;;;;;;;;;;5049941;28;21473;-78
2023/01/20 12:40:54;;;;;;;32.50;16.75;;;;;;;;;;5050478;28;20029;-75
2023/01/20 12:43:25;;;;;;;34.80;17.58;;;;;;;;;;5047523;28;20489;-75
2023/01/20 12:46:03;;;;;;;36.20;17.80;;;;;;;;;;5049046;28;20029;-74
2023/01/20 12:48:42;;;;;;;35.97;18.02;;;;;;;;;;5049916;28;20100;-74
2023/01/20 12:51:11;;;;;;;37.50;18.88;;;;;;;;;;5047675;28;20055;-74
2023/01/20 12:53:55;;;;;;;34.85;17.35;;;;;;;;;;5049966;28;20033;-75
2023/01/20 12:56:31;;;;;;;35.95;16.85;;;;;;;;;;5046370;28;20202;-76
2023/01/20 12:59:03;;;;;;;35.47;18.65;;;;;;;;;;5048912;28;20056;-76
2023/01/20 13:01:38;;;;;;;38.08;19.20;;;;;;;;;;5039917;28;20465;-75
2023/01/20 13:04:23;;;;;;;38.20;17.17;;;;;;;;;;5049246;28;20430;-76
2023/01/20 13:06:49;;;;;;;32.42;17.08;;;;;;;;;;5050110;28;20482;-75
2023/01/20 13:09:34;;;;;;;31.92;16.52;;;;;;;;;;5037604;28;20075;-76
2023/01/20 13:12:03;;;;;;;36.45;16.85;;;;;;;;;;5041123;28;20037;-77
2023/01/20 13:14:56;;;;;;;38.72;18.95;;;;;;;;;;5040585;28;20021;-77
2023/01/20 13:17:26;;;;;;;36.28;18.42;;;;;;;;;;5026415;28;20388;-75
2023/01/20 13:19:56;;;;;;;35.58;17.85;;;;;;;;;;5051729;28;20025;-75
2023/01/20 13:22:22;;;;;;;32.17;17.88;;;;;;;;;;5049604;28;20116;-75
2023/01/20 13:24:51;;;;;;;33.83;16.55;;;;;;;;;;5068145;28;20025;-75
2023/01/20 13:27:20;;;;;;;35.35;17.23;;;;;;;;;;5052567;28;20376;-75
2023/01/20 13:29:49;;;;;;;40.92;17.08;;;;;;;;;;5053323;28;20032;-75
2023/01/20 13:32:32;;;;;;;34.53;17.38;;;;;;;;;;5051005;28;20553;-74
2023/01/20 13:34:59;;;;;;;32.00;17.73;;;;;;;;;;5048208;28;20025;-75
2023/01/20 13:37:25;;;;;;;33.45;17.17;;;;;;;;;;5040515;28;20029;-73
2023/01/20 13:39:53;;;;;;;37.00;19.23;;;;;;;;;;5040205;28;20115;-73
2023/01/20 13:42:31;;;;;;;31.30;16.00;;;;;;;;;;5040551;28;20025;-72
2023/01/20 13:45:12;;;;;;;32.20;17.92;;;;;;;;;;5057502;28;20397;-77
2023/01/20 13:47:47;;;;;;;32.47;14.50;;;;;;;;;;5037470;28;20445;-76
2023/01/20 13:50:22;;;;;;;30.95;15.80;;;;;;;;;;5051603;28;20075;-73
2023/01/20 13:52:51;;;;;;;28.38;15.20;;;;;;;;;;5041743;28;20064;-73
2023/01/20 13:55:27;;;;;;;29.77;15.50;;;;;;;;;;5051675;28;20081;-74
2023/01/20 13:57:53;;;;;;;32.08;15.25;;;;;;;;;;5050211;28;20037;-74
2023/01/20 14:00:19;;;;;;;32.72;17.17;;;;;;;;;;5046772;28;20080;-75
2023/01/20 14:02:46;;;;;;;32.15;16.95;;;;;;;;;;5052635;28;20031;-74
2023/01/20 14:05:19;;;;;;;29.85;16.45;;;;;;;;;;5050787;28;20048;-74
2023/01/20 14:07:45;;;;;;;37.17;18.40;;;;;;;;;;5044589;28;20041;-76
2023/01/20 14:10:12;;;;;;;25.70;15.45;;;;;;;;;;5052728;28;20087;-75
2023/01/20 14:12:41;;;;;;;31.92;16.75;;;;;;;;;;5052049;28;20124;-75
2023/01/20 14:15:07;;;;;;;31.00;18.15;;;;;;;;;;5049848;28;20071;-75
2023/01/20 14:17:33;;;;;;;30.65;16.48;;;;;;;;;;5037654;28;20037;-75
2023/01/20 14:19:59;;;;;;;33.88;16.58;;;;;;;;;;5042754;28;20367;-75
2023/01/20 14:22:30;;;;;;;33.42;17.58;;;;;;;;;;5044970;28;20417;-75
2023/01/20 14:24:58;;;;;;;33.50;17.38;;;;;;;;;;5050787;28;20024;-74
2023/01/20 14:27:32;;;;;;;36.90;17.88;;;;;;;;;;5052511;28;20025;-74
2023/01/20 14:30:12;;;;;;;28.67;16.25;;;;;;;;;;5050661;28;20037;-77
2023/01/20 14:32:38;;;;;;;28.23;15.93;;;;;;;;;;5034062;28;20777;-74
2023/01/20 14:35:15;;;;;;;32.92;17.85;;;;;;;;;;5042905;28;20363;-73
2023/01/20 14:37:42;;;;;;;32.83;18.13;;;;;;;;;;5050330;28;20388;-73
2023/01/20 14:40:28;;;;;;;41.05;22.42;;;;;;;;;;5041097;28;20112;-74
2023/01/20 14:43:07;;;;;;;36.67;20.55;;;;;;;;;;5040664;28;23072;-83
2023/01/20 14:45:33;;;;;;;42.08;19.65;;;;;;;;;;5049139;28;20549;-75